Changsha, China
Current Conditions -  °F | °C
As of 8:00 AM on Tuesday 21 Oct 2014 (Local Time) from ZGHA Reporting Station
Overcast Overcast  
Wind Chill: 66°   Ceiling: 900
Heat Index: 66°   Visibility: 6mi
Dew Point: 59°   Wind: 11mph
Humidity: 78%   Direction: 330°NNW
Pressure: 30.09"   Gusts: NA
Location:  28.2°N, 112.97°E
Report Text: ZGHA 210000Z 33005MPS 9999 BKN009 OVC050 19/15 Q1019 NOSIG
Loading
Personal Weather Stations






























Interactive Weather Map
Tropical Storm Tracking
New forecast layout! Learn more

10-Day Weather Forecast

Advertisements
Track Severe Weather on mobile